sensor_id;sensor_type;location;lat;lon;timestamp;pressure;altitude;pressure_sealevel;temperature;humidity
6096;BME280;25081;42.698;23.298;2024-03-02T00:00:16;94707.88;;;7.59;93.52
6096;BME280;25081;42.698;23.298;2024-03-02T00:02:24;94718.34;;;7.48;93.22
6096;BME280;25081;42.698;23.298;2024-03-02T00:04:33;94686.50;;;7.32;93.63
6096;BME280;25081;42.698;23.298;2024-03-02T00:06:42;94714.80;;;7.44;93.45
6096;BME280;25081;42.698;23.298;2024-03-02T00:08:51;94723.38;;;7.40;93.36
6096;BME280;25081;42.698;23.298;2024-03-02T00:11:00;94718.27;;;7.45;93.26
6096;BME280;25081;42.698;23.298;2024-03-02T00:13:08;94722.41;;;7.50;92.99
6096;BME280;25081;42.698;23.298;2024-03-02T00:15:28;94721.73;;;7.45;92.83
6096;BME280;25081;42.698;23.298;2024-03-02T00:17:34;94727.41;;;7.49;92.56
6096;BME280;25081;42.698;23.298;2024-03-02T00:19:43;94719.23;;;7.51;92.08
6096;BME280;25081;42.698;23.298;2024-03-02T00:21:52;94725.36;;;7.51;92.08
6096;BME280;25081;42.698;23.298;2024-03-02T00:24:01;94706.06;;;7.37;91.87
6096;BME280;25081;42.698;23.298;2024-03-02T00:26:09;94723.00;;;7.52;92.13
6096;BME280;25081;42.698;23.298;2024-03-02T00:28:19;94718.56;;;7.46;92.46
6096;BME280;25081;42.698;23.298;2024-03-02T00:30:42;94714.89;;;7.47;92.46
6096;BME280;25081;42.698;23.298;2024-03-02T00:32:47;94709.55;;;7.54;92.31
6096;BME280;25081;42.698;23.298;2024-03-02T00:34:56;94707.20;;;7.55;92.19
6096;BME280;25081;42.698;23.298;2024-03-02T00:37:05;94707.95;;;7.62;92.14
6096;BME280;25081;42.698;23.298;2024-03-02T00:39:15;94702.97;;;7.63;91.91
6096;BME280;25081;42.698;23.298;2024-03-02T00:41:25;94696.94;;;7.65;92.21
6096;BME280;25081;42.698;23.298;2024-03-02T00:43:58;94697.96;;;7.64;91.97
6096;BME280;25081;42.698;23.298;2024-03-02T00:46:07;94682.20;;;7.69;91.92
6096;BME280;25081;42.698;23.298;2024-03-02T00:48:16;94688.36;;;7.79;91.78
6096;BME280;25081;42.698;23.298;2024-03-02T00:50:25;94683.09;;;7.72;91.41
6096;BME280;25081;42.698;23.298;2024-03-02T00:52:34;94688.36;;;7.79;90.99
6096;BME280;25081;42.698;23.298;2024-03-02T00:54:43;94684.97;;;7.81;90.34
6096;BME280;25081;42.698;23.298;2024-03-02T00:56:52;94684.52;;;7.74;90.40
6096;BME280;25081;42.698;23.298;2024-03-02T00:59:01;94683.70;;;7.74;90.68
6096;BME280;25081;42.698;23.298;2024-03-02T01:01:09;94686.58;;;7.72;90.74
6096;BME280;25081;42.698;23.298;2024-03-02T01:03:18;94689.39;;;7.78;90.60
6096;BME280;25081;42.698;23.298;2024-03-02T01:05:27;94695.24;;;7.70;90.79
6096;BME280;25081;42.698;23.298;2024-03-02T01:07:38;94692.19;;;7.73;91.06
6096;BME280;25081;42.698;23.298;2024-03-02T01:09:47;94693.00;;;7.74;90.74
6096;BME280;25081;42.698;23.298;2024-03-02T01:11:56;94698.16;;;7.78;90.51
6096;BME280;25081;42.698;23.298;2024-03-02T01:14:05;94690.23;;;7.87;90.43
6096;BME280;25081;42.698;23.298;2024-03-02T01:16:14;94671.59;;;7.69;89.59
6096;BME280;25081;42.698;23.298;2024-03-02T01:18:22;94692.52;;;7.84;90.02
6096;BME280;25081;42.698;23.298;2024-03-02T01:20:31;94686.77;;;7.87;89.80
6096;BME280;25081;42.698;23.298;2024-03-02T01:22:40;94684.45;;;7.97;89.69
6096;BME280;25081;42.698;23.298;2024-03-02T01:24:49;94678.11;;;7.98;90.30
6096;BME280;25081;42.698;23.298;2024-03-02T01:26:58;94672.13;;;7.93;89.63
6096;BME280;25081;42.698;23.298;2024-03-02T01:29:07;94673.58;;;7.89;90.26
6096;BME280;25081;42.698;23.298;2024-03-02T01:31:16;94670.70;;;7.91;90.43
6096;BME280;25081;42.698;23.298;2024-03-02T01:33:24;94667.09;;;7.85;90.47
6096;BME280;25081;42.698;23.298;2024-03-02T01:35:33;94667.94;;;7.95;90.58
6096;BME280;25081;42.698;23.298;2024-03-02T01:37:42;94663.95;;;7.95;90.25
6096;BME280;25081;42.698;23.298;2024-03-02T01:39:50;94660.22;;;8.02;90.17
6096;BME280;25081;42.698;23.298;2024-03-02T01:41:59;94660.27;;;7.96;91.15
6096;BME280;25081;42.698;23.298;2024-03-02T01:44:08;94660.23;;;7.87;92.60
6096;BME280;25081;42.698;23.298;2024-03-02T01:46:17;94662.70;;;7.72;93.23
6096;BME280;25081;42.698;23.298;2024-03-02T01:48:26;94667.27;;;7.59;94.58
6096;BME280;25081;42.698;23.298;2024-03-02T01:50:34;94663.73;;;7.56;95.39
6096;BME280;25081;42.698;23.298;2024-03-02T01:52:43;94655.89;;;7.52;96.21
6096;BME280;25081;42.698;23.298;2024-03-02T01:54:52;94656.03;;;7.48;96.18
6096;BME280;25081;42.698;23.298;2024-03-02T01:57:01;94663.20;;;7.40;96.37
6096;BME280;25081;42.698;23.298;2024-03-02T01:59:10;94662.14;;;7.48;97.05
6096;BME280;25081;42.698;23.298;2024-03-02T02:01:19;94664.33;;;7.58;96.92
6096;BME280;25081;42.698;23.298;2024-03-02T02:03:27;94664.44;;;7.69;96.19
6096;BME280;25081;42.698;23.298;2024-03-02T02:05:36;94654.74;;;7.72;95.38
6096;BME280;25081;42.698;23.298;2024-03-02T02:07:45;94657.25;;;7.77;95.57
6096;BME280;25081;42.698;23.298;2024-03-02T02:09:54;94658.66;;;7.79;96.23
6096;BME280;25081;42.698;23.298;2024-03-02T02:12:03;94658.91;;;7.87;95.99
6096;BME280;25081;42.698;23.298;2024-03-02T02:14:12;94661.83;;;7.79;94.61
6096;BME280;25081;42.698;23.298;2024-03-02T02:16:21;94654.34;;;7.85;95.94
6096;BME280;25081;42.698;23.298;2024-03-02T02:18:30;94647.66;;;7.91;96.06
6096;BME280;25081;42.698;23.298;2024-03-02T02:20:38;94652.91;;;7.73;96.04
6096;BME280;25081;42.698;23.298;2024-03-02T02:25:23;94654.42;;;7.71;96.63
6096;BME280;25081;42.698;23.298;2024-03-02T02:27:33;94662.27;;;7.75;96.36
6096;BME280;25081;42.698;23.298;2024-03-02T02:29:41;94654.66;;;7.95;96.19
6096;BME280;25081;42.698;23.298;2024-03-02T02:31:50;94658.30;;;8.10;95.71
6096;BME280;25081;42.698;23.298;2024-03-02T02:33:59;94655.13;;;8.01;95.31
6096;BME280;25081;42.698;23.298;2024-03-02T02:36:08;94659.33;;;8.09;94.30
6096;BME280;25081;42.698;23.298;2024-03-02T02:38:17;94666.61;;;7.95;94.73
6096;BME280;25081;42.698;23.298;2024-03-02T02:40:26;94662.73;;;7.91;94.91
6096;BME280;25081;42.698;23.298;2024-03-02T02:42:34;94660.48;;;7.94;94.54
6096;BME280;25081;42.698;23.298;2024-03-02T02:44:43;94658.37;;;8.03;94.17
6096;BME280;25081;42.698;23.298;2024-03-02T02:46:52;94663.19;;;7.88;94.41
6096;BME280;25081;42.698;23.298;2024-03-02T02:49:01;94662.03;;;7.93;94.34
6096;BME280;25081;42.698;23.298;2024-03-02T02:51:09;94658.57;;;7.92;94.52
6096;BME280;25081;42.698;23.298;2024-03-02T02:53:18;94660.19;;;7.93;94.64
6096;BME280;25081;42.698;23.298;2024-03-02T02:55:27;94663.39;;;8.02;94.73
6096;BME280;25081;42.698;23.298;2024-03-02T02:57:36;94667.94;;;7.95;94.38
6096;BME280;25081;42.698;23.298;2024-03-02T02:59:44;94668.00;;;7.97;94.71
6096;BME280;25081;42.698;23.298;2024-03-02T03:01:53;94673.61;;;7.98;94.74
6096;BME280;25081;42.698;23.298;2024-03-02T03:04:02;94669.77;;;7.94;94.87
6096;BME280;25081;42.698;23.298;2024-03-02T03:06:11;94669.74;;;7.85;94.98
6096;BME280;25081;42.698;23.298;2024-03-02T03:08:20;94644.58;;;7.79;95.31
6096;BME280;25081;42.698;23.298;2024-03-02T03:10:28;94664.73;;;7.86;95.40
6096;BME280;25081;42.698;23.298;2024-03-02T03:12:37;94670.08;;;7.80;95.15
6096;BME280;25081;42.698;23.298;2024-03-02T03:14:46;94666.53;;;7.77;95.54
6096;BME280;25081;42.698;23.298;2024-03-02T03:16:55;94663.30;;;7.74;95.66
6096;BME280;25081;42.698;23.298;2024-03-02T03:19:04;94662.30;;;7.69;95.78
6096;BME280;25081;42.698;23.298;2024-03-02T03:21:13;94662.08;;;7.70;96.00
6096;BME280;25081;42.698;23.298;2024-03-02T03:23:22;94668.67;;;7.61;96.33
6096;BME280;25081;42.698;23.298;2024-03-02T03:25:30;94676.70;;;7.55;96.93
6096;BME280;25081;42.698;23.298;2024-03-02T03:27:40;94666.46;;;7.58;97.25
6096;BME280;25081;42.698;23.298;2024-03-02T03:29:48;94676.63;;;7.61;97.23
6096;BME280;25081;42.698;23.298;2024-03-02T03:31:57;94670.69;;;7.50;97.29
6096;BME280;25081;42.698;23.298;2024-03-02T03:34:06;94670.34;;;7.40;97.82
6096;BME280;25081;42.698;23.298;2024-03-02T03:36:15;94673.73;;;7.38;98.19
6096;BME280;25081;42.698;23.298;2024-03-02T03:38:24;94672.97;;;7.46;98.16
6096;BME280;25081;42.698;23.298;2024-03-02T03:40:32;94667.74;;;7.49;97.74
6096;BME280;25081;42.698;23.298;2024-03-02T03:42:41;94672.02;;;7.50;97.92
6096;BME280;25081;42.698;23.298;2024-03-02T03:44:50;94668.48;;;7.47;97.76
6096;BME280;25081;42.698;23.298;2024-03-02T03:46:58;94668.28;;;7.42;97.93
6096;BME280;25081;42.698;23.298;2024-03-02T03:49:07;94670.19;;;7.35;98.28
6096;BME280;25081;42.698;23.298;2024-03-02T03:51:16;94671.45;;;7.41;98.00
6096;BME280;25081;42.698;23.298;2024-03-02T03:53:25;94660.47;;;7.38;98.18
6096;BME280;25081;42.698;23.298;2024-03-02T03:55:34;94676.95;;;7.46;98.11
6096;BME280;25081;42.698;23.298;2024-03-02T03:57:43;94671.28;;;7.52;98.23
6096;BME280;25081;42.698;23.298;2024-03-02T03:59:52;94662.62;;;7.54;98.39
6096;BME280;25081;42.698;23.298;2024-03-02T04:02:01;94668.48;;;7.63;98.52
6096;BME280;25081;42.698;23.298;2024-03-02T04:04:10;94662.30;;;7.69;97.88
6096;BME280;25081;42.698;23.298;2024-03-02T04:06:18;94663.30;;;7.74;97.63
6096;BME280;25081;42.698;23.298;2024-03-02T04:08:27;94672.10;;;7.68;97.52
6096;BME280;25081;42.698;23.298;2024-03-02T04:10:36;94668.16;;;7.62;97.58
6096;BME280;25081;42.698;23.298;2024-03-02T04:12:45;94668.45;;;7.79;97.37
6096;BME280;25081;42.698;23.298;2024-03-02T04:14:53;94666.06;;;7.70;97.79
6096;BME280;25081;42.698;23.298;2024-03-02T04:17:02;94662.00;;;7.68;97.70
6096;BME280;25081;42.698;23.298;2024-03-02T04:19:11;94666.80;;;7.68;97.94
6096;BME280;25081;42.698;23.298;2024-03-02T04:21:19;94667.71;;;7.56;98.66
6096;BME280;25081;42.698;23.298;2024-03-02T04:23:28;94665.31;;;7.63;98.71
6096;BME280;25081;42.698;23.298;2024-03-02T04:25:37;94663.18;;;7.63;99.39
6096;BME280;25081;42.698;23.298;2024-03-02T04:27:46;94637.02;;;7.51;99.73
6096;BME280;25081;42.698;23.298;2024-03-02T04:29:55;94660.34;;;7.58;99.90
6096;BME280;25081;42.698;23.298;2024-03-02T04:32:04;94676.29;;;7.51;100.00
6096;BME280;25081;42.698;23.298;2024-03-02T04:34:13;94671.39;;;7.55;100.00
6096;BME280;25081;42.698;23.298;2024-03-02T04:36:22;94670.30;;;7.62;100.00
6096;BME280;25081;42.698;23.298;2024-03-02T04:38:31;94678.91;;;7.58;100.00
6096;BME280;25081;42.698;23.298;2024-03-02T04:40:39;94675.38;;;7.55;100.00
6096;BME280;25081;42.698;23.298;2024-03-02T04:42:48;94671.80;;;7.67;100.00
6096;BME280;25081;42.698;23.298;2024-03-02T04:44:57;94655.41;;;7.61;100.00
6096;BME280;25081;42.698;23.298;2024-03-02T04:47:06;94675.64;;;7.71;100.00
6096;BME280;25081;42.698;23.298;2024-03-02T04:49:15;94656.84;;;7.64;100.00
6096;BME280;25081;42.698;23.298;2024-03-02T04:51:23;94668.53;;;7.81;100.00
6096;BME280;25081;42.698;23.298;2024-03-02T04:53:32;94677.62;;;8.08;100.00
6096;BME280;25081;42.698;23.298;2024-03-02T04:55:41;94678.25;;;7.94;100.00
6096;BME280;25081;42.698;23.298;2024-03-02T04:58:08;94674.16;;;7.82;100.00
6096;BME280;25081;42.698;23.298;2024-03-02T05:00:17;94679.51;;;7.75;100.00
6096;BME280;25081;42.698;23.298;2024-03-02T05:02:26;94679.33;;;7.70;100.00
6096;BME280;25081;42.698;23.298;2024-03-02T05:04:35;94686.84;;;7.64;100.00
6096;BME280;25081;42.698;23.298;2024-03-02T05:06:44;94664.80;;;7.48;100.00
6096;BME280;25081;42.698;23.298;2024-03-02T05:08:53;94685.03;;;7.58;100.00
6096;BME280;25081;42.698;23.298;2024-03-02T05:11:01;94690.98;;;7.54;100.00
6096;BME280;25081;42.698;23.298;2024-03-02T05:13:23;94695.91;;;7.28;100.00
6096;BME280;25081;42.698;23.298;2024-03-02T05:15:31;94695.11;;;7.27;100.00
6096;BME280;25081;42.698;23.298;2024-03-02T05:17:40;94689.86;;;7.36;100.00
6096;BME280;25081;42.698;23.298;2024-03-02T05:19:49;94699.05;;;7.50;100.00
6096;BME280;25081;42.698;23.298;2024-03-02T05:21:58;94699.73;;;7.38;100.00
6096;BME280;25081;42.698;23.298;2024-03-02T05:24:07;94704.52;;;7.39;100.00
6096;BME280;25081;42.698;23.298;2024-03-02T05:26:16;94704.16;;;7.29;100.00
6096;BME280;25081;42.698;23.298;2024-03-02T05:28:25;94711.64;;;7.45;100.00
6096;BME280;25081;42.698;23.298;2024-03-02T05:30:33;94708.47;;;7.45;100.00
6096;BME280;25081;42.698;23.298;2024-03-02T05:32:42;94711.94;;;7.46;100.00
6096;BME280;25081;42.698;23.298;2024-03-02T05:34:51;94712.67;;;7.44;100.00
6096;BME280;25081;42.698;23.298;2024-03-02T05:36:59;94712.06;;;7.58;100.00
6096;BME280;25081;42.698;23.298;2024-03-02T05:39:08;94710.47;;;7.50;100.00
6096;BME280;25081;42.698;23.298;2024-03-02T05:41:17;94714.80;;;7.60;100.00
6096;BME280;25081;42.698;23.298;2024-03-02T05:43:26;94722.18;;;7.74;100.00
6096;BME280;25081;42.698;23.298;2024-03-02T05:45:35;94715.91;;;7.62;100.00
6096;BME280;25081;42.698;23.298;2024-03-02T05:47:43;94725.66;;;7.36;100.00
6096;BME280;25081;42.698;23.298;2024-03-02T05:49:55;94727.44;;;7.27;100.00
6096;BME280;25081;42.698;23.298;2024-03-02T05:52:07;94728.39;;;7.39;100.00
6096;BME280;25081;42.698;23.298;2024-03-02T05:54:16;94724.90;;;7.45;100.00
6096;BME280;25081;42.698;23.298;2024-03-02T05:56:24;94727.66;;;7.41;100.00
6096;BME280;25081;42.698;23.298;2024-03-02T05:58:33;94731.17;;;7.35;100.00
6096;BME280;25081;42.698;23.298;2024-03-02T06:00:45;94729.55;;;7.34;100.00
6096;BME280;25081;42.698;23.298;2024-03-02T06:02:54;94724.90;;;7.45;100.00
6096;BME280;25081;42.698;23.298;2024-03-02T06:05:04;94727.63;;;7.48;100.00
6096;BME280;25081;42.698;23.298;2024-03-02T06:07:14;94734.83;;;7.56;100.00
6096;BME280;25081;42.698;23.298;2024-03-02T06:09:22;94730.20;;;7.45;100.00
6096;BME280;25081;42.698;23.298;2024-03-02T06:11:31;94730.72;;;7.44;100.00
6096;BME280;25081;42.698;23.298;2024-03-02T06:13:40;94725.47;;;7.54;100.00
6096;BME280;25081;42.698;23.298;2024-03-02T06:15:48;94730.14;;;7.52;100.00
6096;BME280;25081;42.698;23.298;2024-03-02T06:17:57;94729.61;;;7.59;100.00
6096;BME280;25081;42.698;23.298;2024-03-02T06:20:08;94731.07;;;7.55;100.00
6096;BME280;25081;42.698;23.298;2024-03-02T06:22:16;94731.69;;;7.50;100.00
6096;BME280;25081;42.698;23.298;2024-03-02T06:24:25;94727.91;;;7.55;100.00
6096;BME280;25081;42.698;23.298;2024-03-02T06:26:34;94735.16;;;7.51;100.00
6096;BME280;25081;42.698;23.298;2024-03-02T06:28:43;94728.73;;;7.49;100.00
6096;BME280;25081;42.698;23.298;2024-03-02T06:30:52;94732.42;;;7.48;100.00
6096;BME280;25081;42.698;23.298;2024-03-02T06:33:01;94730.80;;;7.47;100.00
6096;BME280;25081;42.698;23.298;2024-03-02T06:35:10;94717.62;;;7.34;100.00
6096;BME280;25081;42.698;23.298;2024-03-02T06:37:18;94738.61;;;7.35;100.00
6096;BME280;25081;42.698;23.298;2024-03-02T06:39:27;94744.66;;;7.27;100.00
6096;BME280;25081;42.698;23.298;2024-03-02T06:41:36;94746.97;;;7.32;100.00
6096;BME280;25081;42.698;23.298;2024-03-02T06:43:45;94743.19;;;7.15;100.00
6096;BME280;25081;42.698;23.298;2024-03-02T06:45:53;94738.66;;;7.22;100.00
6096;BME280;25081;42.698;23.298;2024-03-02T06:48:02;94751.38;;;7.00;100.00
6096;BME280;25081;42.698;23.298;2024-03-02T06:50:11;94747.56;;;7.12;100.00
6096;BME280;25081;42.698;23.298;2024-03-02T06:52:20;94749.81;;;7.15;100.00
6096;BME280;25081;42.698;23.298;2024-03-02T06:54:28;94748.21;;;7.30;100.00
6096;BME280;25081;42.698;23.298;2024-03-02T06:56:37;94751.16;;;7.31;100.00
6096;BME280;25081;42.698;23.298;2024-03-02T06:58:46;94754.82;;;7.36;100.00
6096;BME280;25081;42.698;23.298;2024-03-02T07:00:55;94738.95;;;7.23;100.00
6096;BME280;25081;42.698;23.298;2024-03-02T07:03:04;94753.28;;;7.38;100.00
6096;BME280;25081;42.698;23.298;2024-03-02T07:05:13;94757.10;;;7.49;100.00
6096;BME280;25081;42.698;23.298;2024-03-02T07:07:21;94759.61;;;7.37;100.00
6096;BME280;25081;42.698;23.298;2024-03-02T07:09:30;94754.56;;;7.22;100.00
6096;BME280;25081;42.698;23.298;2024-03-02T07:11:39;94761.47;;;7.30;100.00
6096;BME280;25081;42.698;23.298;2024-03-02T07:13:48;94758.15;;;7.18;100.00
6096;BME280;25081;42.698;23.298;2024-03-02T07:15:56;94763.67;;;7.39;100.00
6096;BME280;25081;42.698;23.298;2024-03-02T07:18:14;94763.80;;;7.35;100.00
6096;BME280;25081;42.698;23.298;2024-03-02T07:20:23;94762.94;;;7.41;100.00
6096;BME280;25081;42.698;23.298;2024-03-02T07:22:32;94761.55;;;7.32;100.00
6096;BME280;25081;42.698;23.298;2024-03-02T07:24:41;94762.06;;;7.32;100.00
6096;BME280;25081;42.698;23.298;2024-03-02T07:26:50;94767.86;;;7.38;100.00
6096;BME280;25081;42.698;23.298;2024-03-02T07:28:59;94768.36;;;7.44;100.00
6096;BME280;25081;42.698;23.298;2024-03-02T07:31:08;94771.16;;;7.56;100.00
6096;BME280;25081;42.698;23.298;2024-03-02T07:33:17;94766.68;;;7.50;100.00
6096;BME280;25081;42.698;23.298;2024-03-02T07:35:26;94767.58;;;7.53;100.00
6096;BME280;25081;42.698;23.298;2024-03-02T07:37:35;94768.52;;;7.27;100.00
6096;BME280;25081;42.698;23.298;2024-03-02T07:39:44;94771.69;;;7.26;100.00
6096;BME280;25081;42.698;23.298;2024-03-02T07:41:53;94769.50;;;7.32;100.00
6096;BME280;25081;42.698;23.298;2024-03-02T07:44:02;94774.73;;;7.23;100.00
6096;BME280;25081;42.698;23.298;2024-03-02T07:46:11;94777.88;;;7.36;100.00
6096;BME280;25081;42.698;23.298;2024-03-02T07:48:19;94778.64;;;7.14;100.00
6096;BME280;25081;42.698;23.298;2024-03-02T07:50:28;94776.47;;;6.91;100.00
6096;BME280;25081;42.698;23.298;2024-03-02T07:52:37;94778.30;;;6.97;100.00
6096;BME280;25081;42.698;23.298;2024-03-02T07:54:46;94784.20;;;7.06;100.00
6096;BME280;25081;42.698;23.298;2024-03-02T07:56:55;94782.62;;;7.14;100.00
6096;BME280;25081;42.698;23.298;2024-03-02T07:59:04;94782.47;;;7.31;100.00
6096;BME280;25081;42.698;23.298;2024-03-02T08:01:12;94786.00;;;7.41;100.00
6096;BME280;25081;42.698;23.298;2024-03-02T08:03:21;94780.80;;;7.43;100.00
6096;BME280;25081;42.698;23.298;2024-03-02T08:05:30;94783.17;;;7.58;100.00
6096;BME280;25081;42.698;23.298;2024-03-02T08:07:39;94787.37;;;7.57;100.00
6096;BME280;25081;42.698;23.298;2024-03-02T08:09:47;94792.14;;;7.64;100.00
6096;BME280;25081;42.698;23.298;2024-03-02T08:11:56;94793.94;;;7.48;100.00
6096;BME280;25081;42.698;23.298;2024-03-02T08:14:05;94790.45;;;7.69;100.00
6096;BME280;25081;42.698;23.298;2024-03-02T08:16:14;94790.85;;;7.51;100.00
6096;BME280;25081;42.698;23.298;2024-03-02T08:18:23;94789.42;;;7.55;100.00
6096;BME280;25081;42.698;23.298;2024-03-02T08:20:31;94778.25;;;7.39;100.00
6096;BME280;25081;42.698;23.298;2024-03-02T08:22:40;94785.40;;;7.39;100.00
6096;BME280;25081;42.698;23.298;2024-03-02T08:24:49;94795.75;;;7.54;100.00
6096;BME280;25081;42.698;23.298;2024-03-02T08:26:58;94789.88;;;7.45;100.00
6096;BME280;25081;42.698;23.298;2024-03-02T08:29:06;94789.02;;;7.22;100.00
6096;BME280;25081;42.698;23.298;2024-03-02T08:31:16;94792.17;;;7.51;100.00
6096;BME280;25081;42.698;23.298;2024-03-02T08:33:24;94792.16;;;7.57;100.00
6096;BME280;25081;42.698;23.298;2024-03-02T08:35:33;94789.53;;;7.89;100.00
6096;BME280;25081;42.698;23.298;2024-03-02T08:37:42;94787.08;;;7.71;100.00
6096;BME280;25081;42.698;23.298;2024-03-02T08:39:51;94786.53;;;7.79;100.00
6096;BME280;25081;42.698;23.298;2024-03-02T08:42:00;94781.84;;;7.96;100.00
6096;BME280;25081;42.698;23.298;2024-03-02T08:44:09;94786.88;;;7.89;100.00
6096;BME280;25081;42.698;23.298;2024-03-02T08:46:17;94778.75;;;8.15;100.00
6096;BME280;25081;42.698;23.298;2024-03-02T08:48:26;94779.46;;;8.29;100.00
6096;BME280;25081;42.698;23.298;2024-03-02T08:50:35;94779.84;;;8.48;100.00
6096;BME280;25081;42.698;23.298;2024-03-02T08:52:43;94785.20;;;8.92;100.00
6096;BME280;25081;42.698;23.298;2024-03-02T08:54:52;94788.53;;;8.62;100.00
6096;BME280;25081;42.698;23.298;2024-03-02T08:57:01;94787.48;;;8.97;99.31
6096;BME280;25081;42.698;23.298;2024-03-02T08:59:10;94781.81;;;9.03;97.84
6096;BME280;25081;42.698;23.298;2024-03-02T09:01:18;94778.27;;;8.91;98.85
6096;BME280;25081;42.698;23.298;2024-03-02T09:03:27;94784.12;;;9.27;98.54
6096;BME280;25081;42.698;23.298;2024-03-02T09:05:36;94781.05;;;8.96;96.90
6096;BME280;25081;42.698;23.298;2024-03-02T09:07:45;94785.45;;;9.27;96.54
6096;BME280;25081;42.698;23.298;2024-03-02T09:09:54;94780.24;;;8.95;96.09
6096;BME280;25081;42.698;23.298;2024-03-02T09:12:03;94789.17;;;8.82;97.05
6096;BME280;25081;42.698;23.298;2024-03-02T09:14:12;94787.25;;;8.55;97.92
6096;BME280;25081;42.698;23.298;2024-03-02T09:16:20;94790.13;;;8.54;98.17
6096;BME280;25081;42.698;23.298;2024-03-02T09:18:29;94801.22;;;8.28;98.04
6096;BME280;25081;42.698;23.298;2024-03-02T09:20:38;94803.98;;;8.31;98.03
6096;BME280;25081;42.698;23.298;2024-03-02T09:22:47;94799.19;;;8.30;98.10
6096;BME280;25081;42.698;23.298;2024-03-02T09:24:56;94797.63;;;8.48;98.72
6096;BME280;25081;42.698;23.298;2024-03-02T09:27:05;94800.69;;;8.51;97.77
6096;BME280;25081;42.698;23.298;2024-03-02T09:29:14;94799.66;;;8.52;98.15
6096;BME280;25081;42.698;23.298;2024-03-02T09:31:22;94799.65;;;8.86;97.01
6096;BME280;25081;42.698;23.298;2024-03-02T09:33:31;94800.74;;;8.70;97.66
6096;BME280;25081;42.698;23.298;2024-03-02T09:35:40;94806.80;;;9.20;97.42
6096;BME280;25081;42.698;23.298;2024-03-02T09:37:49;94793.86;;;9.51;95.80
6096;BME280;25081;42.698;23.298;2024-03-02T09:39:57;94805.98;;;9.38;94.94
6096;BME280;25081;42.698;23.298;2024-03-02T09:42:07;94802.73;;;9.08;95.43
6096;BME280;25081;42.698;23.298;2024-03-02T09:44:15;94804.66;;;9.38;94.25
6096;BME280;25081;42.698;23.298;2024-03-02T09:46:24;94804.27;;;9.34;94.01
6096;BME280;25081;42.698;23.298;2024-03-02T09:48:33;94804.05;;;9.45;94.31
6096;BME280;25081;42.698;23.298;2024-03-02T09:50:42;94805.53;;;9.50;93.66
6096;BME280;25081;42.698;23.298;2024-03-02T09:52:50;94802.64;;;9.61;94.04
6096;BME280;25081;42.698;23.298;2024-03-02T09:54:59;94805.76;;;9.58;93.69
6096;BME280;25081;42.698;23.298;2024-03-02T09:57:08;94804.13;;;9.66;93.91
6096;BME280;25081;42.698;23.298;2024-03-02T09:59:17;94809.06;;;9.62;94.05
6096;BME280;25081;42.698;23.298;2024-03-02T10:01:26;94806.11;;;9.61;94.32
6096;BME280;25081;42.698;23.298;2024-03-02T10:03:35;94805.36;;;9.72;94.95
6096;BME280;25081;42.698;23.298;2024-03-02T10:05:44;94800.86;;;9.55;94.36
6096;BME280;25081;42.698;23.298;2024-03-02T10:08:01;94804.50;;;9.51;95.06
6096;BME280;25081;42.698;23.298;2024-03-02T10:10:17;94804.72;;;9.40;95.66
6096;BME280;25081;42.698;23.298;2024-03-02T10:12:25;94794.67;;;9.42;95.47
6096;BME280;25081;42.698;23.298;2024-03-02T10:14:34;94804.20;;;9.50;95.47
6096;BME280;25081;42.698;23.298;2024-03-02T10:16:43;94807.03;;;9.46;95.89
6096;BME280;25081;42.698;23.298;2024-03-02T10:18:52;94806.58;;;9.31;95.69
6096;BME280;25081;42.698;23.298;2024-03-02T10:21:13;94803.97;;;9.24;96.69
6096;BME280;25081;42.698;23.298;2024-03-02T10:23:22;94802.72;;;9.45;96.78
6096;BME280;25081;42.698;23.298;2024-03-02T10:25:32;94798.00;;;9.10;95.87
6096;BME280;25081;42.698;23.298;2024-03-02T10:27:40;94804.98;;;8.96;97.21
6096;BME280;25081;42.698;23.298;2024-03-02T10:29:49;94808.74;;;8.97;99.03
6096;BME280;25081;42.698;23.298;2024-03-02T10:31:58;94804.42;;;9.12;99.15
6096;BME280;25081;42.698;23.298;2024-03-02T10:34:07;94800.77;;;8.97;98.63
6096;BME280;25081;42.698;23.298;2024-03-02T10:36:16;94800.14;;;8.77;99.42
6096;BME280;25081;42.698;23.298;2024-03-02T10:38:25;94805.86;;;8.80;99.66
6096;BME280;25081;42.698;23.298;2024-03-02T10:40:34;94799.28;;;8.83;99.88
6096;BME280;25081;42.698;23.298;2024-03-02T10:42:43;94806.52;;;8.85;99.92
6096;BME280;25081;42.698;23.298;2024-03-02T10:44:51;94800.42;;;9.03;99.52
6096;BME280;25081;42.698;23.298;2024-03-02T10:47:02;94801.91;;;8.99;99.16
6096;BME280;25081;42.698;23.298;2024-03-02T10:49:10;94798.94;;;8.88;99.62
6096;BME280;25081;42.698;23.298;2024-03-02T10:51:19;94804.25;;;8.88;100.00
6096;BME280;25081;42.698;23.298;2024-03-02T10:53:28;94779.67;;;8.68;100.00
6096;BME280;25081;42.698;23.298;2024-03-02T10:55:37;94787.77;;;8.80;100.00
6096;BME280;25081;42.698;23.298;2024-03-02T10:57:50;94788.43;;;8.84;99.96
6096;BME280;25081;42.698;23.298;2024-03-02T10:59:57;94791.97;;;8.87;100.00
6096;BME280;25081;42.698;23.298;2024-03-02T11:02:05;94787.48;;;9.06;100.00
6096;BME280;25081;42.698;23.298;2024-03-02T11:04:15;94785.28;;;9.03;100.00
6096;BME280;25081;42.698;23.298;2024-03-02T11:06:24;94790.47;;;9.07;100.00
6096;BME280;25081;42.698;23.298;2024-03-02T11:08:33;94787.80;;;8.98;99.50
6096;BME280;25081;42.698;23.298;2024-03-02T11:10:45;94783.71;;;8.96;99.84
6096;BME280;25081;42.698;23.298;2024-03-02T11:12:53;94784.84;;;8.88;100.00
6096;BME280;25081;42.698;23.298;2024-03-02T11:15:00;94780.76;;;8.95;100.00
6096;BME280;25081;42.698;23.298;2024-03-02T11:17:09;94786.16;;;8.88;100.00
6096;BME280;25081;42.698;23.298;2024-03-02T11:19:18;94777.95;;;8.80;99.67
6096;BME280;25081;42.698;23.298;2024-03-02T11:21:27;94777.84;;;8.78;99.58
6096;BME280;25081;42.698;23.298;2024-03-02T11:23:35;94779.52;;;8.88;100.00
6096;BME280;25081;42.698;23.298;2024-03-02T11:25:44;94781.16;;;8.64;99.88
6096;BME280;25081;42.698;23.298;2024-03-02T11:28:03;94780.61;;;8.80;100.00
6096;BME280;25081;42.698;23.298;2024-03-02T11:30:15;94769.38;;;8.87;100.00
6096;BME280;25081;42.698;23.298;2024-03-02T11:32:24;94782.85;;;9.11;98.36